This is the latest recevied weather packets stored in our database for station/object OE6CUD-6. If no packets are shown the sender has not sent any weather packets the latest 10 day(s).
| Time | Temp. | Humidity | Pressure | Rain* | Wind** | Luminosity | Snow |
|---|---|---|---|---|---|---|---|
| 1777017547 | 16.11° C | 48% | 1017.5 hPa | 0 mm | - | 534 W/m² | - |
| 1777015146 | 13.33° C | 55% | 1017.3 hPa | 0 mm | - | 404 W/m² | - |
| 1777014534 | 13.89° C | 55% | 1017.4 hPa | 0 mm | - | 297 W/m² | - |
| 1777014232 | 13.33° C | 58% | 1017.3 hPa | 0 mm | - | 40 W/m² | - |
| 1777013930 | 12.78° C | 57% | 1017.2 hPa | 0 mm | - | 39 W/m² | - |
| 1777013783 | 12.78° C | 56% | 1017.2 hPa | 0 mm | - | 39 W/m² | - |
| 1777013025 | 12.78° C | 55% | 1017.2 hPa | 0 mm | - | 56 W/m² | - |
| 1777012410 | 11.67° C | 61% | 1017.2 hPa | 0 mm | - | 204 W/m² | - |
| 1777011065 | 10° C | 68% | 1016.8 hPa | 0 mm | - | 28 W/m² | - |
| 1777008968 | 7.22° C | 78% | 1016.3 hPa | 0 mm | - | 23 W/m² | - |
| 1777007434 | 3.89° C | 88% | 1015.8 hPa | 0 mm | - | 19 W/m² | - |
| 1777006064 | 3.89° C | 87% | 1015.7 hPa | 0 mm | - | 16 W/m² | - |
| 1777003652 | 3.89° C | 85% | 1015.5 hPa | 0 mm | - | 11 W/m² | - |
| 1777002449 | 3.89° C | 84% | 1015.4 hPa | 0 mm | - | 0 W/m² | - |
| 1777001525 | 3.89° C | 84% | 1015.5 hPa | 0 mm | - | 0 W/m² | - |
| 1777001372 | 3.89° C | 84% | 1015.6 hPa | 0 mm | - | 0 W/m² | - |
| 1776996930 | 5° C | 79% | 1015.6 hPa | 0 mm | - | 0 W/m² | - |
| 1776994193 | 5.56° C | 77% | 1015.9 hPa | 0 mm | - | 0 W/m² | - |
| 1776994050 | 5.56° C | 77% | 1016 hPa | 0 mm | - | 0 W/m² | - |
| 1776993272 | 5.56° C | 76% | 1016 hPa | 0 mm | - | 0 W/m² | - |
| 1776990545 | 6.67° C | 72% | 1016 hPa | 0 mm | - | 0 W/m² | - |
| 1776990245 | 6.67° C | 71% | 1016 hPa | 0 mm | - | 0 W/m² | - |
| 1776987484 | 7.78° C | 67% | 1016.4 hPa | 0 mm | - | 0 W/m² | - |
| 1776986873 | 7.78° C | 66% | 1016.4 hPa | 0 mm | - | 0 W/m² | - |
| 1776985351 | 8.33° C | 64% | 1016.4 hPa | 0 mm | - | 0 W/m² | - |
* Rain latest hour (hover to see other rain measurements)
** Current wind speed in m/s (hover to see current wind gust speed)